createdAt,value
2022-12-17T00:01:41.877Z,12.77
2022-12-17T00:04:27.095Z,12.40
2022-12-17T00:07:12.325Z,12.40
2022-12-17T00:09:57.699Z,12.10
2022-12-17T00:12:42.940Z,11.90
2022-12-17T00:15:28.083Z,12.50
2022-12-17T00:18:23.884Z,12.90
2022-12-17T00:21:17.786Z,12.57
2022-12-17T00:24:23.465Z,12.53
2022-12-17T00:27:08.572Z,12.80
2022-12-17T00:29:54.941Z,12.77
2022-12-17T00:32:40.917Z,13.00
2022-12-17T00:35:26.709Z,12.90
2022-12-17T00:38:11.883Z,12.50
2022-12-17T00:40:57.319Z,12.93
2022-12-17T00:43:42.430Z,12.93
2022-12-17T00:46:27.796Z,12.87
2022-12-17T00:49:13.006Z,13.20
2022-12-17T00:51:58.295Z,13.10
2022-12-17T00:54:43.563Z,12.70
2022-12-17T00:57:30.481Z,12.97
2022-12-17T01:00:15.884Z,13.17
2022-12-17T01:03:01.175Z,12.83
2022-12-17T01:05:46.570Z,13.17
2022-12-17T01:08:33.506Z,13.23
2022-12-17T01:11:24.933Z,12.77
2022-12-17T01:14:11.091Z,12.43
2022-12-17T01:16:57.094Z,12.70
2022-12-17T01:19:42.893Z,12.90
2022-12-17T01:22:29.077Z,12.90
2022-12-17T01:25:14.485Z,12.70
2022-12-17T01:27:59.720Z,12.57
2022-12-17T01:30:45.724Z,12.90
2022-12-17T01:33:31.103Z,12.80
2022-12-17T01:36:17.280Z,12.77
2022-12-17T01:39:03.105Z,12.77
2022-12-17T01:41:48.805Z,12.73
2022-12-17T01:45:08.195Z,12.90
2022-12-17T01:48:30.748Z,13.00
2022-12-17T01:51:17.224Z,12.70
2022-12-17T01:54:08.638Z,12.50
2022-12-17T01:56:57.440Z,12.77
2022-12-17T01:59:54.892Z,12.83
2022-12-17T02:02:41.306Z,12.67
2022-12-17T02:05:26.762Z,12.73
2022-12-17T02:08:24.560Z,12.90
2022-12-17T02:11:34.518Z,13.00
2022-12-17T02:14:28.569Z,12.97
2022-12-17T02:17:27.126Z,12.73
2022-12-17T02:20:43.284Z,12.90
2022-12-17T02:23:50.520Z,12.70
2022-12-17T02:27:00.508Z,12.93
2022-12-17T02:29:49.991Z,12.50
2022-12-17T02:32:36.685Z,13.00
2022-12-17T02:35:30.679Z,12.43
2022-12-17T02:38:16.079Z,13.00
2022-12-17T02:41:05.968Z,12.67
2022-12-17T02:44:10.183Z,13.00
2022-12-17T02:46:58.299Z,13.17
2022-12-17T02:49:43.711Z,13.00
2022-12-17T02:52:34.871Z,12.80
2022-12-17T02:55:21.160Z,13.10
2022-12-17T02:58:06.739Z,12.87
2022-12-17T03:00:52.214Z,13.07
2022-12-17T03:03:38.036Z,12.70
2022-12-17T03:06:24.058Z,12.77
2022-12-17T03:09:09.263Z,12.77
2022-12-17T03:11:54.638Z,12.80
2022-12-17T03:14:39.829Z,13.20
2022-12-17T03:17:25.249Z,12.80
2022-12-17T03:20:10.464Z,12.77
2022-12-17T03:22:55.841Z,13.00
2022-12-17T03:25:41.011Z,12.90
2022-12-17T03:28:29.120Z,12.73
2022-12-17T03:31:19.069Z,13.00
2022-12-17T03:34:04.922Z,12.80
2022-12-17T03:36:50.667Z,12.70
2022-12-17T03:39:36.059Z,12.93
2022-12-17T03:42:21.250Z,13.00
2022-12-17T03:45:06.675Z,12.77
2022-12-17T03:47:52.138Z,12.80
2022-12-17T03:50:37.289Z,13.13
2022-12-17T03:53:24.168Z,12.53
2022-12-17T03:56:09.252Z,13.30
2022-12-17T03:58:54.584Z,12.70
2022-12-17T04:01:39.853Z,13.47
2022-12-17T04:04:25.321Z,13.17
2022-12-17T04:07:10.730Z,13.20
2022-12-17T04:09:56.085Z,12.83
2022-12-17T04:12:41.360Z,12.47
2022-12-17T04:15:27.149Z,12.93
2022-12-17T04:18:12.642Z,13.07
2022-12-17T04:20:57.938Z,12.90
2022-12-17T04:23:43.364Z,12.90
2022-12-17T04:26:28.629Z,13.20
2022-12-17T04:29:14.003Z,12.67
2022-12-17T04:31:59.376Z,12.93
2022-12-17T04:34:44.642Z,12.80
2022-12-17T04:37:29.873Z,12.80
2022-12-17T04:40:15.334Z,13.00
2022-12-17T04:43:00.493Z,12.57
2022-12-17T04:45:46.313Z,13.07
2022-12-17T04:48:31.490Z,12.80
2022-12-17T04:51:16.883Z,13.20
2022-12-17T04:54:02.180Z,13.10
2022-12-17T04:56:47.480Z,13.13
2022-12-17T04:59:32.785Z,13.30
2022-12-17T05:02:18.044Z,13.47
2022-12-17T05:05:03.366Z,12.90
2022-12-17T05:07:48.781Z,12.97
2022-12-17T05:10:34.382Z,12.97
2022-12-17T05:13:20.964Z,13.20
2022-12-17T05:16:06.188Z,13.10
2022-12-17T05:18:51.655Z,12.97
2022-12-17T05:21:37.009Z,13.30
2022-12-17T05:24:22.384Z,13.03
2022-12-17T05:27:07.597Z,12.97
2022-12-17T05:29:52.816Z,12.70
2022-12-17T05:32:38.026Z,13.17
2022-12-17T05:35:23.953Z,12.90
2022-12-17T05:38:09.111Z,13.43
2022-12-17T05:40:54.560Z,12.83
2022-12-17T05:43:39.964Z,13.17
2022-12-17T05:46:25.727Z,13.30
2022-12-17T05:49:10.829Z,13.40
2022-12-17T05:51:56.013Z,13.20
2022-12-17T05:54:41.226Z,13.23
2022-12-17T05:57:26.553Z,13.17
2022-12-17T06:00:11.867Z,13.60
2022-12-17T06:03:00.228Z,13.40
2022-12-17T06:05:45.630Z,13.43
2022-12-17T06:08:50.916Z,13.47
2022-12-17T06:11:40.590Z,13.13
2022-12-17T06:14:25.992Z,13.27
2022-12-17T06:17:11.493Z,13.40
2022-12-17T06:19:56.888Z,23.33
2022-12-17T06:22:42.087Z,13.13
2022-12-17T06:25:28.673Z,12.80
2022-12-17T06:28:22.775Z,13.03
2022-12-17T06:31:10.968Z,12.90
2022-12-17T06:33:56.869Z,12.90
2022-12-17T06:36:42.797Z,12.90
2022-12-17T06:39:28.588Z,13.30
2022-12-17T06:42:13.822Z,13.17
2022-12-17T06:44:59.141Z,12.90
2022-12-17T06:47:44.516Z,12.90
2022-12-17T06:50:29.696Z,12.80
2022-12-17T06:53:23.274Z,12.87
2022-12-17T06:56:08.945Z,13.00
2022-12-17T06:58:54.844Z,12.93
2022-12-17T07:01:40.190Z,13.10
2022-12-17T07:04:25.695Z,13.10
2022-12-17T07:07:14.064Z,12.80
2022-12-17T07:10:00.123Z,12.63
2022-12-17T07:12:45.731Z,13.10
2022-12-17T07:15:31.659Z,13.00
2022-12-17T07:18:19.908Z,13.03
2022-12-17T07:21:05.647Z,12.60
2022-12-17T07:23:51.003Z,13.30
2022-12-17T07:26:36.956Z,12.47
2022-12-17T07:29:22.500Z,12.80
2022-12-17T07:32:08.188Z,12.90
2022-12-17T07:34:53.876Z,12.77
2022-12-17T07:37:39.456Z,13.03
2022-12-17T07:40:25.858Z,13.03
2022-12-17T07:43:11.183Z,12.47
2022-12-17T07:45:56.493Z,12.43
2022-12-17T07:48:44.846Z,12.30
2022-12-17T07:51:29.973Z,12.60
2022-12-17T07:54:15.813Z,12.33
2022-12-17T07:57:01.095Z,12.30
2022-12-17T07:59:46.645Z,12.63
2022-12-17T08:02:32.115Z,12.60
2022-12-17T08:05:19.377Z,12.70
2022-12-17T08:08:05.086Z,12.47
2022-12-17T08:10:50.283Z,12.47
2022-12-17T08:13:35.728Z,12.33
2022-12-17T08:16:21.411Z,12.23
2022-12-17T08:19:06.839Z,12.00
2022-12-17T08:21:52.253Z,12.70
2022-12-17T08:24:38.127Z,12.43
2022-12-17T08:27:23.705Z,12.50
2022-12-17T08:30:09.364Z,12.50
2022-12-17T08:32:54.954Z,12.70
2022-12-17T08:35:40.546Z,12.37
2022-12-17T08:38:25.848Z,12.80
2022-12-17T08:41:11.150Z,12.37
2022-12-17T08:43:56.656Z,12.60
2022-12-17T08:46:41.965Z,12.50
2022-12-17T08:49:27.515Z,11.90
2022-12-17T08:52:16.344Z,11.70
2022-12-17T08:55:04.366Z,12.17
2022-12-17T08:58:09.490Z,12.20
2022-12-17T09:00:55.421Z,12.30
2022-12-17T09:03:43.309Z,12.30
2022-12-17T09:06:28.638Z,12.50
2022-12-17T09:09:14.040Z,11.70
2022-12-17T09:12:00.484Z,11.30
2022-12-17T09:14:46.098Z,10.93
2022-12-17T09:17:31.685Z,11.00
2022-12-17T09:20:17.239Z,10.90
2022-12-17T09:23:02.695Z,11.60
2022-12-17T09:25:48.148Z,12.23
2022-12-17T09:28:33.887Z,11.87
2022-12-17T09:31:37.239Z,11.90
2022-12-17T09:34:25.370Z,11.93
2022-12-17T09:37:14.470Z,11.73
2022-12-17T09:39:59.722Z,11.27
2022-12-17T09:42:59.851Z,11.17
2022-12-17T09:45:58.186Z,12.20
2022-12-17T09:49:05.316Z,12.27
2022-12-17T09:51:54.452Z,11.20
2022-12-17T09:54:59.314Z,11.90
2022-12-17T09:57:52.809Z,12.13
2022-12-17T10:00:48.282Z,12.27
2022-12-17T10:03:42.172Z,12.47
2022-12-17T10:06:37.795Z,11.67
2022-12-17T10:09:35.487Z,11.80
2022-12-17T10:12:30.207Z,12.10
2022-12-17T10:15:15.947Z,12.37
2022-12-17T10:18:01.879Z,12.60
2022-12-17T10:20:58.405Z,12.33
2022-12-17T10:23:49.204Z,12.00
2022-12-17T10:26:40.392Z,12.20
2022-12-17T10:29:34.534Z,11.90
2022-12-17T10:32:35.555Z,11.60
2022-12-17T10:35:27.887Z,11.90
2022-12-17T10:38:13.515Z,11.83
2022-12-17T10:40:59.462Z,11.60
2022-12-17T10:43:56.509Z,11.47
2022-12-17T10:46:50.501Z,10.93
2022-12-17T10:49:38.808Z,10.87
2022-12-17T10:52:31.770Z,11.90
2022-12-17T10:55:20.400Z,11.70
2022-12-17T10:58:08.472Z,11.77
2022-12-17T11:00:58.826Z,11.90
2022-12-17T11:03:50.019Z,12.30
2022-12-17T11:06:49.761Z,12.37
2022-12-17T11:09:50.174Z,12.30
2022-12-17T11:12:43.632Z,11.60
2022-12-17T11:16:10.959Z,12.20
2022-12-17T11:19:35.031Z,15.00
2022-12-17T11:22:30.540Z,12.47
2022-12-17T11:25:26.066Z,11.80
2022-12-17T11:28:23.830Z,11.87
2022-12-17T11:31:37.434Z,11.77
2022-12-17T11:34:38.111Z,11.87
2022-12-17T11:37:45.443Z,11.53
2022-12-17T11:40:31.351Z,12.10
2022-12-17T11:43:34.923Z,11.60
2022-12-17T11:46:28.323Z,11.43
2022-12-17T11:49:20.229Z,11.60
2022-12-17T11:52:25.894Z,11.97
2022-12-17T11:55:26.325Z,11.63
2022-12-17T11:58:28.511Z,11.70
2022-12-17T12:01:45.631Z,11.47
2022-12-17T12:04:49.085Z,11.60
2022-12-17T12:07:56.353Z,10.90
2022-12-17T12:11:01.575Z,11.43
2022-12-17T12:13:47.084Z,10.97
2022-12-17T12:16:46.898Z,10.97
2022-12-17T12:19:42.378Z,10.77
2022-12-17T12:22:48.397Z,10.90
2022-12-17T12:26:00.846Z,11.00
2022-12-17T12:28:58.446Z,11.50
2022-12-17T12:31:58.309Z,11.70
2022-12-17T12:34:49.652Z,11.17
2022-12-17T12:37:38.393Z,10.77
2022-12-17T12:40:32.936Z,11.17
2022-12-17T12:43:21.232Z,11.60
2022-12-17T12:46:16.800Z,10.97
2022-12-17T12:49:34.997Z,11.90
2022-12-17T12:52:20.723Z,11.27
2022-12-17T12:55:06.468Z,10.80
2022-12-17T12:57:53.547Z,11.40
2022-12-17T13:01:01.218Z,11.07
2022-12-17T13:03:48.578Z,11.27
2022-12-17T13:06:38.328Z,11.55
2022-12-17T13:09:20.679Z,10.93
2022-12-17T13:12:09.960Z,11.30
2022-12-17T13:14:52.440Z,10.70
2022-12-17T13:17:26.816Z,11.10
2022-12-17T13:20:23.817Z,10.67
2022-12-17T13:23:11.433Z,11.60
2022-12-17T13:25:38.477Z,11.80
2022-12-17T13:28:05.878Z,11.97
2022-12-17T13:30:37.681Z,11.30
2022-12-17T13:33:33.656Z,11.17
2022-12-17T13:36:12.211Z,11.87
2022-12-17T13:39:03.410Z,11.17
2022-12-17T13:41:32.782Z,11.50
2022-12-17T13:44:17.217Z,10.80
2022-12-17T13:46:49.336Z,11.70
2022-12-17T13:50:10.123Z,10.80
2022-12-17T13:52:36.628Z,11.27
2022-12-17T13:55:17.098Z,11.20
2022-12-17T13:57:48.051Z,11.60
2022-12-17T14:00:33.525Z,11.20
2022-12-17T14:03:14.179Z,11.50
2022-12-17T14:05:44.311Z,10.97
2022-12-17T14:08:17.806Z,11.10
2022-12-17T14:10:51.884Z,10.97
2022-12-17T14:13:19.189Z,10.60
2022-12-17T14:15:49.844Z,10.67
2022-12-17T14:18:20.188Z,10.50
2022-12-17T14:20:49.338Z,11.00
2022-12-17T14:23:36.478Z,10.97
2022-12-17T14:26:03.867Z,11.00
2022-12-17T14:28:37.289Z,11.00
2022-12-17T14:31:27.981Z,11.20
2022-12-17T14:34:09.622Z,11.30
2022-12-17T14:36:44.027Z,10.90
2022-12-17T14:39:29.018Z,10.70
2022-12-17T14:42:17.255Z,10.47
2022-12-17T14:44:55.904Z,10.67
2022-12-17T14:47:25.719Z,10.63
2022-12-17T14:49:58.682Z,10.73
2022-12-17T14:52:50.251Z,10.40
2022-12-17T14:55:26.137Z,10.83
2022-12-17T14:57:54.693Z,10.10
2022-12-17T15:00:22.054Z,10.20
2022-12-17T15:02:54.620Z,10.50
2022-12-17T15:05:21.778Z,10.20
2022-12-17T15:07:48.633Z,10.73
2022-12-17T15:10:19.631Z,10.50
2022-12-17T15:12:47.872Z,10.47
2022-12-17T15:15:15.688Z,10.60
2022-12-17T15:17:42.637Z,10.70
2022-12-17T15:20:20.722Z,10.73
2022-12-17T15:22:48.148Z,10.63
2022-12-17T15:25:17.861Z,10.93
2022-12-17T15:27:45.005Z,10.90
2022-12-17T15:30:16.538Z,11.10
2022-12-17T15:32:45.856Z,11.20
2022-12-17T15:35:16.148Z,11.47
2022-12-17T15:37:43.008Z,11.43
2022-12-17T15:40:12.007Z,10.90
2022-12-17T15:43:02.924Z,11.20
2022-12-17T15:45:32.853Z,10.87
2022-12-17T15:47:59.727Z,11.23
2022-12-17T15:50:26.758Z,11.43
2022-12-17T15:52:53.719Z,11.47
2022-12-17T15:55:20.634Z,11.13
2022-12-17T15:57:47.475Z,12.10
2022-12-17T16:00:14.822Z,12.43
2022-12-17T16:02:41.831Z,12.10
2022-12-17T16:05:09.437Z,12.03
2022-12-17T16:07:37.952Z,12.23
2022-12-17T16:10:06.695Z,12.00
2022-12-17T16:12:33.754Z,12.10
2022-12-17T16:15:00.722Z,11.83
2022-12-17T16:17:27.625Z,12.10
2022-12-17T16:19:54.582Z,11.93
2022-12-17T16:22:21.933Z,12.80
2022-12-17T16:24:49.332Z,12.57
2022-12-17T16:27:18.209Z,12.47
2022-12-17T16:29:47.650Z,11.80
2022-12-17T16:32:15.957Z,11.60
2022-12-17T16:34:43.628Z,11.60
2022-12-17T16:37:10.824Z,12.03
2022-12-17T16:39:37.717Z,11.90
2022-12-17T16:42:05.128Z,11.70
2022-12-17T16:44:32.049Z,12.10
2022-12-17T16:46:59.830Z,11.50
2022-12-17T16:49:26.888Z,12.13
2022-12-17T16:51:55.086Z,11.70
2022-12-17T16:54:26.754Z,11.90
2022-12-17T16:56:55.605Z,11.40
2022-12-17T16:59:23.505Z,12.33
2022-12-17T17:01:52.290Z,11.87
2022-12-17T17:04:21.752Z,11.83
2022-12-17T17:06:52.177Z,12.10
2022-12-17T17:09:20.207Z,11.83
2022-12-17T17:11:51.439Z,11.43
2022-12-17T17:14:19.958Z,11.67
2022-12-17T17:16:46.899Z,11.90
2022-12-17T17:19:13.989Z,12.33
2022-12-17T17:21:42.685Z,12.30
2022-12-17T17:24:20.838Z,12.70
2022-12-17T17:26:50.074Z,12.30
2022-12-17T17:29:17.001Z,12.00
2022-12-17T17:32:09.153Z,12.40
2022-12-17T17:34:30.869Z,12.33
2022-12-17T17:36:57.678Z,12.30
2022-12-17T17:39:24.623Z,12.50
2022-12-17T17:41:52.070Z,12.50
2022-12-17T17:44:19.070Z,12.17
2022-12-17T17:46:46.245Z,12.30
2022-12-17T17:49:13.462Z,12.60
2022-12-17T17:54:29.374Z,12.73
2022-12-17T17:56:56.192Z,13.33
2022-12-17T17:59:30.874Z,11.90
2022-12-17T18:01:59.963Z,12.10
2022-12-17T18:04:26.947Z,11.90
2022-12-17T18:07:23.636Z,12.37
2022-12-17T18:09:40.857Z,12.03
2022-12-17T18:12:26.115Z,11.90
2022-12-17T18:15:13.217Z,11.73
2022-12-17T18:17:40.182Z,11.60
2022-12-17T18:20:07.613Z,11.63
2022-12-17T18:22:34.596Z,12.00
2022-12-17T18:25:01.613Z,11.47
2022-12-17T18:27:28.465Z,11.37
2022-12-17T18:29:55.238Z,11.20
2022-12-17T18:32:22.196Z,11.10
2022-12-17T18:34:49.128Z,11.30
2022-12-17T18:37:16.225Z,11.00
2022-12-17T18:39:43.027Z,10.90
2022-12-17T18:42:28.338Z,11.30
2022-12-17T18:44:55.249Z,11.73
2022-12-17T18:47:22.069Z,11.07
2022-12-17T18:49:49.097Z,11.10
2022-12-17T18:52:17.258Z,11.10
2022-12-17T18:54:45.090Z,11.47
2022-12-17T18:57:12.354Z,11.93
2022-12-17T18:59:41.128Z,12.00
2022-12-17T19:02:14.910Z,12.03
2022-12-17T19:04:42.624Z,12.07
2022-12-17T19:07:09.631Z,12.60
2022-12-17T19:09:39.494Z,11.40
2022-12-17T19:12:08.185Z,12.07
2022-12-17T19:14:35.457Z,12.17
2022-12-17T19:17:03.310Z,12.27
2022-12-17T19:19:30.144Z,12.50
2022-12-17T19:21:59.690Z,11.07
2022-12-17T19:24:27.135Z,11.80
2022-12-17T19:26:54.266Z,11.57
2022-12-17T19:29:21.493Z,11.70
2022-12-17T19:31:48.709Z,11.77
2022-12-17T19:34:17.377Z,11.47
2022-12-17T19:36:44.900Z,11.90
2022-12-17T19:39:14.277Z,11.70
2022-12-17T19:41:41.166Z,11.87
2022-12-17T19:44:12.339Z,11.83
2022-12-17T19:46:39.567Z,11.60
2022-12-17T19:49:08.515Z,11.63
2022-12-17T19:51:38.833Z,12.03
2022-12-17T19:54:08.827Z,12.00
2022-12-17T19:56:37.093Z,11.50
2022-12-17T19:59:10.131Z,17.43
2022-12-17T20:01:45.344Z,11.30
2022-12-17T20:04:14.720Z,11.20
2022-12-17T20:06:42.920Z,11.60
2022-12-17T20:09:10.079Z,10.80
2022-12-17T20:11:37.545Z,11.17
2022-12-17T20:14:18.045Z,10.87
2022-12-17T20:16:50.334Z,11.10
2022-12-17T20:19:21.300Z,11.17
2022-12-17T20:21:48.489Z,11.40
2022-12-17T20:24:16.509Z,11.10
2022-12-17T20:26:44.865Z,11.30
2022-12-17T20:29:12.210Z,11.40
2022-12-17T20:31:39.444Z,11.03
2022-12-17T20:34:08.405Z,11.20
2022-12-17T20:36:35.938Z,10.57
2022-12-17T20:39:03.109Z,10.73
2022-12-17T20:41:31.258Z,11.30
2022-12-17T20:43:58.718Z,11.50
2022-12-17T20:46:26.187Z,10.97
2022-12-17T20:48:53.736Z,11.13
2022-12-17T20:51:26.100Z,11.77
2022-12-17T20:53:54.489Z,11.63
2022-12-17T20:56:26.731Z,12.47
2022-12-17T20:58:59.458Z,11.40
2022-12-17T21:01:28.619Z,11.60
2022-12-17T21:03:57.043Z,11.97
2022-12-17T21:06:27.282Z,12.27
2022-12-17T21:08:55.632Z,12.60
2022-12-17T21:11:25.862Z,12.20
2022-12-17T21:13:53.562Z,12.37
2022-12-17T21:16:23.370Z,11.77
2022-12-17T21:18:55.041Z,12.00
2022-12-17T21:21:25.237Z,11.70
2022-12-17T21:23:53.500Z,11.73
2022-12-17T21:26:23.217Z,11.40
2022-12-17T21:28:52.561Z,11.90
2022-12-17T21:31:25.315Z,12.00
2022-12-17T21:33:55.628Z,12.00
2022-12-17T21:36:24.212Z,11.70
2022-12-17T21:38:51.435Z,12.33
2022-12-17T21:41:22.229Z,12.30
2022-12-17T21:43:56.671Z,11.60
2022-12-17T21:46:26.099Z,11.97
2022-12-17T21:48:53.878Z,11.93
2022-12-17T21:51:21.861Z,11.67
2022-12-17T21:53:56.794Z,11.93
2022-12-17T21:56:24.173Z,12.03
2022-12-17T21:58:59.173Z,12.20
2022-12-17T22:01:29.941Z,12.57
2022-12-17T22:03:59.055Z,12.30
2022-12-17T22:06:32.018Z,11.90
2022-12-17T22:09:02.185Z,12.33
2022-12-17T22:11:39.311Z,12.40
2022-12-17T22:14:09.103Z,12.50
2022-12-17T22:16:49.860Z,12.10
2022-12-17T22:19:21.979Z,12.87
2022-12-17T22:21:53.156Z,12.17
2022-12-17T22:24:25.312Z,12.27
2022-12-17T22:27:00.028Z,11.70
2022-12-17T22:29:46.450Z,12.03
2022-12-17T22:32:34.755Z,12.20
2022-12-17T22:35:55.644Z,12.40
2022-12-17T22:40:24.405Z,12.40
2022-12-17T22:44:42.079Z,12.43
2022-12-17T22:44:48.775Z,12.40
2022-12-17T22:46:17.315Z,12.27
2022-12-17T22:48:44.308Z,12.37
2022-12-17T22:51:13.746Z,12.70
2022-12-17T22:53:42.014Z,12.50
2022-12-17T22:56:19.438Z,12.57
2022-12-17T22:58:56.702Z,12.50
2022-12-17T23:01:23.752Z,12.77
2022-12-17T23:03:55.005Z,12.70
2022-12-17T23:06:22.334Z,12.70
2022-12-17T23:08:49.293Z,12.60
2022-12-17T23:11:23.879Z,12.63
2022-12-17T23:13:51.821Z,13.40
2022-12-17T23:16:19.418Z,13.10
2022-12-17T23:18:47.676Z,13.10
2022-12-17T23:21:16.809Z,13.10
2022-12-17T23:23:44.085Z,12.87
2022-12-17T23:26:17.317Z,13.33
2022-12-17T23:28:45.290Z,12.70
2022-12-17T23:31:14.591Z,12.93
2022-12-17T23:33:42.721Z,13.13
2022-12-17T23:36:15.904Z,12.70
2022-12-17T23:38:43.734Z,12.77
2022-12-17T23:41:17.039Z,13.00
2022-12-17T23:43:45.027Z,12.70
2022-12-17T23:46:12.654Z,12.80
2022-12-17T23:48:45.635Z,13.07
2022-12-17T23:51:15.258Z,13.07
2022-12-17T23:53:43.122Z,13.30
2022-12-17T23:56:16.710Z,13.13
2022-12-17T23:58:45.700Z,13.17
